Time;durP1;ratioP1;P1;durP2;ratioP2;P2;SDS_P1;SDS_P2;PMS_P1;PMS_P2;Temp;Humidity;BMP_temperature;BMP_pressure;BME280_temperature;BME280_humidity;BME280_pressure;Samples;Min_cycle;Max_cycle;Signal;HPM_P1;HPM_P2
2021/04/04 00:02:16;;;;;;;45.90;15.88;;;0.80;99.90;;;;;;5075941;28;20024;-77
2021/04/04 00:04:42;;;;;;;23.63;11.57;;;0.80;99.90;;;;;;5057837;28;20067;-77
2021/04/04 00:07:08;;;;;;;115.72;36.97;;;0.80;99.90;;;;;;5075922;28;20096;-77
2021/04/04 00:09:34;;;;;;;84.18;30.63;;;0.80;99.90;;;;;;5057478;28;20481;-76
2021/04/04 00:11:59;;;;;;;108.38;38.00;;;0.70;99.90;;;;;;5072680;28;20131;-77
2021/04/04 00:14:25;;;;;;;81.53;30.00;;;0.70;99.90;;;;;;5074761;28;20112;-76
2021/04/04 00:16:50;;;;;;;204.10;50.70;;;0.70;99.90;;;;;;5057739;28;20107;-78
2021/04/04 00:19:16;;;;;;;110.82;29.30;;;0.70;99.90;;;;;;5058465;28;20104;-76
2021/04/04 00:21:42;;;;;;;105.82;31.58;;;0.80;99.90;;;;;;5075597;28;20478;-76
2021/04/04 00:24:08;;;;;;;44.30;13.65;;;0.80;99.90;;;;;;5058478;28;20024;-76
2021/04/04 00:26:34;;;;;;;64.80;22.83;;;0.70;99.90;;;;;;5075405;28;20029;-77
2021/04/04 00:29:00;;;;;;;34.95;16.13;;;0.70;99.90;;;;;;5057549;28;20496;-76
2021/04/04 00:31:25;;;;;;;36.83;14.90;;;0.70;99.90;;;;;;5057066;28;20025;-76
2021/04/04 00:33:51;;;;;;;34.53;17.83;;;0.60;99.90;;;;;;5057484;28;20535;-76
2021/04/04 00:36:17;;;;;;;39.15;17.27;;;0.60;99.90;;;;;;5057416;28;20028;-77
2021/04/04 00:38:42;;;;;;;35.95;17.65;;;0.50;99.90;;;;;;5075221;28;20020;-76
2021/04/04 00:41:08;;;;;;;55.03;19.08;;;0.40;99.90;;;;;;5073525;28;20027;-78
2021/04/04 00:43:34;;;;;;;44.17;19.20;;;0.40;99.90;;;;;;5075123;28;20025;-77
2021/04/04 00:46:00;;;;;;;54.67;19.20;;;0.40;99.90;;;;;;5057121;28;20387;-76
2021/04/04 00:48:25;;;;;;;36.63;15.45;;;0.40;99.90;;;;;;5057100;28;20058;-77
2021/04/04 00:50:51;;;;;;;35.75;17.50;;;0.40;99.90;;;;;;5073667;28;20371;-77
2021/04/04 00:53:17;;;;;;;65.95;25.55;;;0.40;99.90;;;;;;5074643;28;20437;-77
2021/04/04 00:55:43;;;;;;;101.72;32.22;;;0.40;99.90;;;;;;5088065;28;20024;-76
2021/04/04 00:58:09;;;;;;;101.18;28.13;;;0.40;99.90;;;;;;5076393;28;20032;-76
2021/04/04 01:00:35;;;;;;;184.65;48.15;;;0.40;99.90;;;;;;5076760;28;20028;-76
2021/04/04 01:03:02;;;;;;;49.17;19.35;;;0.40;99.90;;;;;;5077542;28;20037;-77
2021/04/04 01:05:33;;;;;;;16.92;10.23;;;0.40;99.90;;;;;;5056378;28;20028;-77
2021/04/04 01:07:59;;;;;;;28.25;10.57;;;0.40;99.90;;;;;;5056379;28;20049;-76
2021/04/04 01:10:29;;;;;;;12.32;6.22;;;0.40;99.90;;;;;;5056629;28;20071;-76
2021/04/04 01:13:10;;;;;;;38.50;13.38;;;0.40;99.90;;;;;;5056514;28;20112;-77
2021/04/04 01:15:55;;;;;;;17.23;8.63;;;0.40;99.90;;;;;;5056610;28;20469;-76
2021/04/04 01:18:26;;;;;;;45.67;14.73;;;0.40;99.90;;;;;;5056619;28;20020;-77
2021/04/04 01:21:07;;;;;;;24.75;11.38;;;0.40;99.90;;;;;;5050218;28;20064;-77
2021/04/04 01:23:58;;;;;;;73.82;22.30;;;0.40;99.90;;;;;;5056434;28;20020;-76
2021/04/04 01:26:35;;;;;;;23.98;9.52;;;0.40;99.90;;;;;;5056438;28;20123;-77
2021/04/04 01:29:05;;;;;;;34.40;13.30;;;0.40;99.90;;;;;;5074186;28;20033;-77
2021/04/04 01:31:32;;;;;;;21.23;10.98;;;0.40;99.90;;;;;;5055955;28;20055;-76
2021/04/04 01:33:58;;;;;;;55.17;22.40;;;0.40;99.90;;;;;;5107455;28;20024;-76
2021/04/04 01:36:26;;;;;;;55.17;18.42;;;0.30;99.90;;;;;;5094427;28;20073;-77
2021/04/04 01:38:54;;;;;;;145.55;37.25;;;0.30;99.90;;;;;;5074038;28;20020;-77
2021/04/04 01:41:36;;;;;;;73.85;20.70;;;0.30;99.90;;;;;;5076202;28;20107;-77
2021/04/04 01:44:14;;;;;;;17.77;8.48;;;0.20;99.90;;;;;;5076219;28;20028;-77
2021/04/04 01:46:41;;;;;;;14.88;7.00;;;0.20;99.90;;;;;;5076062;28;20016;-76
2021/04/04 01:49:07;;;;;;;11.60;5.50;;;0.20;99.90;;;;;;5076052;28;20020;-77
2021/04/04 01:51:34;;;;;;;12.27;7.22;;;0.20;99.90;;;;;;5092150;28;20093;-78
2021/04/04 01:54:03;;;;;;;16.75;7.75;;;0.10;99.90;;;;;;5075950;28;20023;-77
2021/04/04 01:56:29;;;;;;;11.48;5.72;;;0.20;99.90;;;;;;5075104;28;20030;-76
2021/04/04 01:58:56;;;;;;;42.20;13.45;;;0.10;99.90;;;;;;5056058;28;20490;-77
2021/04/04 02:01:22;;;;;;;18.02;7.30;;;0.10;99.90;;;;;;5056565;28;20390;-76
2021/04/04 02:03:48;;;;;;;13.63;6.50;;;0.00;99.90;;;;;;5055576;28;20478;-76
2021/04/04 02:06:16;;;;;;;28.13;9.65;;;-0.10;99.90;;;;;;5073601;28;20050;-77
2021/04/04 02:08:42;;;;;;;17.52;7.45;;;-0.10;99.90;;;;;;5073795;28;20028;-76
2021/04/04 02:11:10;;;;;;;13.98;6.85;;;-0.20;99.90;;;;;;5072907;28;20477;-78
2021/04/04 02:13:37;;;;;;;9.13;5.85;;;-0.30;99.90;;;;;;5055444;28;20461;-77
2021/04/04 02:16:05;;;;;;;15.90;7.25;;;-0.30;99.90;;;;;;5073358;28;20113;-77
2021/04/04 02:18:32;;;;;;;12.50;6.88;;;-0.30;99.90;;;;;;5086026;28;20401;-76
2021/04/04 02:20:59;;;;;;;13.25;7.47;;;-0.40;99.90;;;;;;5093538;28;20466;-76
2021/04/04 02:23:26;;;;;;;13.55;6.53;;;-0.40;99.90;;;;;;5071425;28;20021;-76
2021/04/04 02:25:57;;;;;;;10.27;6.28;;;-0.40;99.90;;;;;;5060041;28;20035;-77
2021/04/04 02:28:23;;;;;;;18.30;6.80;;;-0.50;99.90;;;;;;5066552;28;20115;-77
2021/04/04 02:30:50;;;;;;;10.07;6.82;;;-0.50;99.90;;;;;;5092987;28;20120;-76
2021/04/04 02:33:24;;;;;;;14.48;7.03;;;-0.60;99.90;;;;;;5093450;28;20028;-77
2021/04/04 02:35:58;;;;;;;12.48;6.88;;;-0.60;99.90;;;;;;5085537;28;20040;-77
2021/04/04 02:38:28;;;;;;;20.05;9.10;;;-0.60;99.90;;;;;;5073036;28;20478;-76
2021/04/04 02:40:56;;;;;;;20.08;7.38;;;-0.60;99.90;;;;;;5055060;28;20107;-76
2021/04/04 02:43:26;;;;;;;20.45;8.95;;;-0.60;99.90;;;;;;5073025;28;20024;-77
2021/04/04 02:45:53;;;;;;;50.63;20.40;;;-0.60;99.90;;;;;;5072989;28;20020;-76
2021/04/04 02:48:26;;;;;;;75.80;30.73;;;-0.60;99.90;;;;;;5072761;28;20046;-79
2021/04/04 02:50:54;;;;;;;24.55;13.15;;;-0.50;99.90;;;;;;5054522;28;20025;-79
2021/04/04 02:53:21;;;;;;;16.98;8.70;;;-0.60;99.90;;;;;;5072865;28;20070;-80
2021/04/04 02:55:48;;;;;;;15.60;7.30;;;-0.60;99.90;;;;;;5072672;28;20029;-79
2021/04/04 02:58:18;;;;;;;37.20;14.70;;;-0.60;99.90;;;;;;5072813;28;20040;-79
2021/04/04 03:00:44;;;;;;;29.23;12.48;;;-0.60;99.90;;;;;;5076047;28;20222;-79
2021/04/04 03:03:11;;;;;;;30.20;13.15;;;-0.70;99.90;;;;;;5074903;28;20111;-79
2021/04/04 03:05:38;;;;;;;24.08;10.07;;;-0.70;99.90;;;;;;5092884;28;20032;-79
2021/04/04 03:08:07;;;;;;;17.70;7.15;;;-0.70;99.90;;;;;;5092941;28;20371;-79
2021/04/04 03:10:34;;;;;;;14.25;7.43;;;-0.80;99.90;;;;;;5074689;28;20038;-79
2021/04/04 03:13:01;;;;;;;23.75;8.23;;;-0.80;99.90;;;;;;5092941;28;20016;-79
2021/04/04 03:15:28;;;;;;;15.00;8.05;;;-0.90;99.90;;;;;;5092769;28;20020;-79
2021/04/04 03:17:56;;;;;;;15.85;6.75;;;-0.90;99.90;;;;;;5060604;28;20052;-79
2021/04/04 03:20:22;;;;;;;12.85;7.95;;;-1.00;99.90;;;;;;5073048;28;20032;-79
2021/04/04 03:22:49;;;;;;;14.70;7.20;;;-0.90;99.90;;;;;;5076500;28;20454;-79
2021/04/04 03:25:17;;;;;;;12.45;7.45;;;-0.90;99.90;;;;;;5058662;28;20024;-79
2021/04/04 03:27:44;;;;;;;15.13;8.20;;;-1.00;99.90;;;;;;5058464;28;20021;-80
2021/04/04 03:30:35;;;;;;;12.82;7.60;;;-1.00;99.90;;;;;;5058512;28;20039;-79
2021/04/04 03:33:05;;;;;;;16.38;9.73;;;-1.10;99.90;;;;;;5056354;28;20108;-79
2021/04/04 03:35:32;;;;;;;16.05;8.43;;;-1.10;99.90;;;;;;5056262;28;20029;-79
2021/04/04 03:38:01;;;;;;;17.15;9.30;;;-1.20;99.90;;;;;;5056249;28;20078;-78
2021/04/04 03:40:26;;;;;;;13.52;6.72;;;-1.30;99.90;;;;;;5056292;28;20095;-79
2021/04/04 03:42:53;;;;;;;12.45;7.13;;;-1.30;99.90;;;;;;5056412;28;20482;-79
2021/04/04 03:45:20;;;;;;;13.55;6.88;;;-1.30;99.90;;;;;;5062862;28;20020;-79
2021/04/04 03:47:47;;;;;;;17.85;8.05;;;-1.30;99.90;;;;;;5058269;28;20052;-79
2021/04/04 03:50:18;;;;;;;18.38;10.13;;;-1.30;99.90;;;;;;5076004;28;20032;-79
2021/04/04 03:52:46;;;;;;;19.83;10.48;;;-1.30;99.90;;;;;;5058244;28;20025;-79
2021/04/04 03:55:15;;;;;;;18.08;8.13;;;-1.30;99.90;;;;;;5075827;28;20021;-79
2021/04/04 03:57:43;;;;;;;12.82;8.77;;;-1.30;99.90;;;;;;5057859;28;20029;-79
2021/04/04 04:00:10;;;;;;;14.65;8.93;;;-1.30;99.90;;;;;;5076043;28;20458;-79
2021/04/04 04:02:37;;;;;;;16.13;9.45;;;-1.30;99.90;;;;;;5094225;28;20111;-79
2021/04/04 04:05:04;;;;;;;16.10;8.63;;;-1.40;99.90;;;;;;5078035;28;20016;-79
2021/04/04 04:07:31;;;;;;;19.55;9.25;;;-1.40;99.90;;;;;;5077867;28;20397;-79
2021/04/04 04:09:59;;;;;;;17.90;8.82;;;-1.40;99.90;;;;;;5096538;28;20177;-79
2021/04/04 04:12:27;;;;;;;17.95;9.40;;;-1.40;99.90;;;;;;5077864;28;20059;-79
2021/04/04 04:14:55;;;;;;;19.63;10.02;;;-1.50;99.90;;;;;;5078187;28;20020;-79
2021/04/04 04:17:23;;;;;;;13.55;8.27;;;-1.50;99.90;;;;;;5095481;28;20470;-79
2021/04/04 04:19:49;;;;;;;14.23;6.55;;;-1.60;99.90;;;;;;5077676;28;20020;-79
2021/04/04 04:22:15;;;;;;;17.73;7.80;;;-1.60;99.90;;;;;;5067948;28;20108;-79
2021/04/04 04:24:41;;;;;;;16.48;8.63;;;-1.60;99.90;;;;;;5075315;28;20054;-78
2021/04/04 04:27:09;;;;;;;14.85;8.10;;;-1.60;99.90;;;;;;5075549;28;20059;-79
2021/04/04 04:29:36;;;;;;;17.73;10.18;;;-1.60;99.90;;;;;;5057428;28;20024;-79
2021/04/04 04:32:04;;;;;;;17.60;7.82;;;-1.60;99.90;;;;;;5074331;28;20029;-79
2021/04/04 04:34:30;;;;;;;15.35;8.55;;;-1.60;99.90;;;;;;5048672;28;20058;-79
2021/04/04 04:36:58;;;;;;;14.50;9.10;;;-1.60;99.90;;;;;;5075431;28;20445;-79
2021/04/04 04:39:24;;;;;;;97.40;42.67;;;-1.60;99.90;;;;;;5075097;28;20079;-79
2021/04/04 04:41:51;;;;;;;64.55;22.13;;;-1.50;99.90;;;;;;5057007;28;20039;-79
2021/04/04 04:44:28;;;;;;;88.18;30.40;;;-1.50;99.90;;;;;;5074874;28;20111;-79
2021/04/04 04:46:54;;;;;;;124.28;43.67;;;-1.60;99.90;;;;;;5057159;28;20474;-79
2021/04/04 04:49:21;;;;;;;76.90;28.10;;;-1.60;99.90;;;;;;5056932;28;20048;-79
2021/04/04 04:51:47;;;;;;;70.18;26.30;;;-1.50;99.90;;;;;;5061784;28;20062;-79
2021/04/04 04:54:14;;;;;;;27.80;12.10;;;-1.50;99.90;;;;;;5077035;28;20496;-79
2021/04/04 04:56:40;;;;;;;20.20;9.27;;;-1.50;99.90;;;;;;5095098;28;20015;-79
2021/04/04 04:59:07;;;;;;;21.23;10.60;;;-1.50;99.90;;;;;;5095092;28;20032;-79
2021/04/04 05:01:44;;;;;;;22.60;12.35;;;-1.40;99.90;;;;;;5076814;28;20047;-79
2021/04/04 05:04:10;;;;;;;25.58;11.40;;;-1.40;99.90;;;;;;5094974;28;20046;-79
2021/04/04 05:06:36;;;;;;;218.77;87.38;;;-1.40;99.90;;;;;;5064532;28;20032;-79
2021/04/04 05:09:06;;;;;;;199.40;69.18;;;-1.30;99.90;;;;;;5074865;28;20039;-79
2021/04/04 05:11:34;;;;;;;345.67;138.52;;;-1.30;99.90;;;;;;5056526;28;20119;-79
2021/04/04 05:14:01;;;;;;;198.90;78.38;;;-1.30;99.90;;;;;;5074593;28;20017;-79
2021/04/04 05:16:30;;;;;;;73.95;31.90;;;-1.20;99.90;;;;;;5074225;28;20025;-79
2021/04/04 05:18:56;;;;;;;45.28;23.30;;;-1.10;99.90;;;;;;5056521;28;20017;-79
2021/04/04 05:21:27;;;;;;;34.53;19.73;;;-1.10;99.90;;;;;;5075089;28;20438;-79
2021/04/04 05:23:59;;;;;;;36.85;18.63;;;-1.00;99.90;;;;;;5076372;28;20393;-78
2021/04/04 05:26:27;;;;;;;34.28;19.55;;;-0.80;99.90;;;;;;5076495;28;20024;-78
2021/04/04 05:28:59;;;;;;;37.15;18.05;;;-0.60;99.90;;;;;;5094658;28;20321;-77
2021/04/04 05:31:25;;;;;;;30.20;15.70;;;-0.50;99.90;;;;;;5073496;28;20040;-79
2021/04/04 05:33:51;;;;;;;24.17;13.57;;;-0.30;99.90;;;;;;5072955;28;20025;-78
2021/04/04 05:36:16;;;;;;;21.52;11.52;;;-0.30;99.90;;;;;;5074734;28;20066;-76
2021/04/04 05:38:42;;;;;;;23.73;12.43;;;-0.20;99.90;;;;;;5076280;28;20116;-77
2021/04/04 05:41:09;;;;;;;26.42;13.15;;;-0.10;99.90;;;;;;5094003;28;20033;-77
2021/04/04 05:43:37;;;;;;;21.77;10.75;;;0.00;99.90;;;;;;5075579;28;20066;-77
2021/04/04 05:46:17;;;;;;;17.33;9.15;;;0.20;99.90;;;;;;5055938;28;20021;-76
2021/04/04 05:48:55;;;;;;;17.73;9.07;;;0.30;99.90;;;;;;5055827;28;20021;-77
2021/04/04 05:51:32;;;;;;;26.98;11.38;;;0.40;99.90;;;;;;5073876;28;20060;-76
2021/04/04 05:54:20;;;;;;;15.48;9.02;;;0.60;99.90;;;;;;5073648;28;20042;-76
2021/04/04 05:57:08;;;;;;;18.60;9.50;;;0.70;99.90;;;;;;5073616;28;20021;-76
2021/04/04 05:59:40;;;;;;;18.02;9.00;;;0.80;99.90;;;;;;5065945;28;20052;-76
2021/04/04 06:02:15;;;;;;;16.60;9.35;;;0.90;99.90;;;;;;5055118;28;20028;-76
2021/04/04 06:05:02;;;;;;;18.95;9.75;;;0.90;99.90;;;;;;5075648;28;20035;-76
2021/04/04 06:08:06;;;;;;;15.25;9.20;;;0.90;99.90;;;;;;5075570;28;20032;-76
2021/04/04 06:10:55;;;;;;;13.32;8.40;;;0.90;99.90;;;;;;5062000;28;20044;-76
2021/04/04 06:13:48;;;;;;;17.08;7.90;;;1.00;99.90;;;;;;5055615;28;20147;-77
2021/04/04 06:16:26;;;;;;;10.60;6.68;;;0.80;99.90;;;;;;5068241;28;20079;-77
2021/04/04 06:19:20;;;;;;;26.48;11.18;;;0.80;99.90;;;;;;5093599;28;20492;-77
2021/04/04 06:21:45;;;;;;;;;;;0.80;99.90;;;;;;5093933;28;20031;-77
2021/04/04 06:24:17;;;;;;;22.48;10.63;;;0.80;99.90;;;;;;5093477;28;20273;-76
2021/04/04 06:27:07;;;;;;;33.63;15.55;;;1.00;99.90;;;;;;5075167;28;20056;-76
2021/04/04 06:29:47;;;;;;;34.83;14.55;;;0.80;99.90;;;;;;5092324;28;20020;-76
2021/04/04 06:32:28;;;;;;;20.58;11.00;;;0.70;99.90;;;;;;5066066;28;20074;-76
2021/04/04 06:35:03;;;;;;;14.10;7.60;;;0.90;99.90;;;;;;5065837;28;20101;-76
2021/04/04 06:38:10;;;;;;;15.98;9.55;;;0.80;99.90;;;;;;5065673;28;20390;-76
2021/04/04 06:40:50;;;;;;;15.52;8.35;;;0.90;99.90;;;;;;5073877;28;20107;-76
2021/04/04 06:43:31;;;;;;;15.43;8.93;;;0.80;99.90;;;;;;5096688;28;20020;-77
2021/04/04 06:46:22;;;;;;;13.77;7.45;;;0.80;99.90;;;;;;5089612;28;20115;-76
2021/04/04 06:49:22;;;;;;;13.98;6.97;;;0.90;99.90;;;;;;5076889;28;20111;-77
2021/04/04 06:52:08;;;;;;;11.18;7.72;;;0.90;99.90;;;;;;5061046;28;20036;-76
2021/04/04 06:54:58;;;;;;;17.20;9.35;;;1.10;99.90;;;;;;5051888;28;20085;-76
2021/04/04 06:57:27;;;;;;;20.13;13.13;;;1.30;99.90;;;;;;5053890;28;20024;-77
2021/04/04 07:00:12;;;;;;;13.55;7.15;;;1.30;99.90;;;;;;5060039;28;20021;-77
2021/04/04 07:03:04;;;;;;;14.93;6.70;;;1.30;99.90;;;;;;5067444;28;20048;-77
2021/04/04 07:05:34;;;;;;;15.10;8.37;;;1.30;99.90;;;;;;5071888;28;20108;-77
2021/04/04 07:08:11;;;;;;;14.38;8.25;;;1.50;99.90;;;;;;5071708;28;20059;-77
2021/04/04 07:10:51;;;;;;;13.13;7.75;;;1.60;98.90;;;;;;5068829;28;20482;-76
2021/04/04 07:13:47;;;;;;;12.75;6.85;;;1.80;98.80;;;;;;5071729;28;20035;-76
2021/04/04 07:16:41;;;;;;;10.82;6.15;;;2.20;95.60;;;;;;5071789;28;20383;-77
2021/04/04 07:19:45;;;;;;;9.88;5.68;;;2.30;92.70;;;;;;5056672;28;20033;-77
2021/04/04 07:22:18;;;;;;;9.98;6.20;;;2.50;88.70;;;;;;5066474;28;20485;-76
2021/04/04 07:25:21;;;;;;;10.95;5.20;;;2.60;86.80;;;;;;5063360;28;20200;-77
2021/04/04 07:27:55;;;;;;;8.80;5.57;;;2.40;82.60;;;;;;5080787;28;20032;-76
2021/04/04 07:30:35;;;;;;;8.10;4.95;;;2.30;82.30;;;;;;5054005;28;20048;-77
2021/04/04 07:33:14;;;;;;;10.43;6.22;;;2.20;81.90;;;;;;5046816;28;20029;-76
2021/04/04 07:36:11;;;;;;;10.35;4.97;;;2.20;81.80;;;;;;5062135;28;20025;-77
2021/04/04 07:38:49;;;;;;;9.35;5.60;;;2.10;82.60;;;;;;5052503;28;20031;-77
2021/04/04 07:41:32;;;;;;;8.05;6.53;;;2.40;82.30;;;;;;5053173;28;20040;-76
2021/04/04 07:44:02;;;;;;;;;;;2.40;80.60;;;;;;5053951;28;20048;-76
2021/04/04 07:46:40;;;;;;;9.52;6.45;;;2.50;79.50;;;;;;5071325;28;20354;-76
2021/04/04 07:49:33;;;;;;;9.52;6.80;;;2.60;81.70;;;;;;5071471;28;20095;-76
2021/04/04 07:52:03;;;;;;;13.07;6.82;;;3.00;80.80;;;;;;5048078;28;20154;-76
2021/04/04 07:54:48;;;;;;;9.18;6.40;;;3.30;76.20;;;;;;5081748;28;20021;-77
2021/04/04 07:57:51;;;;;;;8.35;4.15;;;3.50;75.00;;;;;;5067985;28;20029;-77
2021/04/04 08:00:18;;;;;;;7.68;4.78;;;3.40;70.70;;;;;;5068239;28;20024;-77
2021/04/04 08:02:52;;;;;;;7.38;4.75;;;3.30;73.50;;;;;;5070248;28;20051;-77
2021/04/04 08:05:25;;;;;;;6.30;4.30;;;3.20;71.80;;;;;;5067978;28;20028;-77
2021/04/04 08:08:05;;;;;;;8.55;4.63;;;3.10;71.40;;;;;;5054529;28;20013;-77
2021/04/04 08:10:49;;;;;;;9.13;4.47;;;3.30;72.30;;;;;;5073558;28;20028;-76
2021/04/04 08:13:24;;;;;;;9.50;5.93;;;3.40;70.20;;;;;;5073606;28;20039;-77
2021/04/04 08:16:26;;;;;;;283.08;114.97;;;3.60;69.10;;;;;;5063914;28;20037;-76
2021/04/04 08:18:52;;;;;;;11.80;6.53;;;3.60;65.50;;;;;;5064884;28;20124;-77
2021/04/04 08:21:28;;;;;;;7.53;4.47;;;4.10;64.90;;;;;;5067175;28;20103;-77
2021/04/04 08:24:08;;;;;;;14.07;6.10;;;4.20;64.80;;;;;;5056780;28;20021;-76
2021/04/04 08:26:43;;;;;;;11.07;4.88;;;4.50;63.60;;;;;;5061336;28;20103;-77
2021/04/04 08:29:14;;;;;;;9.38;5.07;;;4.80;64.70;;;;;;5053163;28;20021;-77
2021/04/04 08:31:57;;;;;;;7.15;4.45;;;5.00;62.30;;;;;;5075252;28;20486;-76
2021/04/04 08:34:48;;;;;;;10.65;4.60;;;4.80;60.80;;;;;;5059518;28;20020;-77
2021/04/04 08:37:21;;;;;;;5.18;2.58;;;4.90;61.00;;;;;;5074736;28;20107;-77
2021/04/04 08:39:55;;;;;;;6.07;3.25;;;4.70;59.70;;;;;;5073959;28;20021;-78
2021/04/04 08:42:21;;;;;;;5.03;2.85;;;4.20;58.70;;;;;;5056310;28;20049;-76
2021/04/04 08:45:09;;;;;;;6.15;3.35;;;4.30;59.40;;;;;;5055106;28;20118;-76
2021/04/04 08:47:42;;;;;;;3.67;2.22;;;4.20;58.90;;;;;;5041470;28;20044;-77
2021/04/04 08:50:12;;;;;;;3.22;2.63;;;4.10;58.30;;;;;;5057091;28;20551;-77
2021/04/04 08:52:45;;;;;;;2.70;2.30;;;4.20;58.40;;;;;;5059792;28;20028;-77
2021/04/04 08:55:15;;;;;;;6.45;3.13;;;4.40;57.90;;;;;;5055878;28;20048;-76
2021/04/04 08:57:47;;;;;;;89.13;34.85;;;4.30;57.60;;;;;;5084172;28;20020;-76
2021/04/04 09:00:14;;;;;;;3.38;2.58;;;4.80;56.40;;;;;;5079704;28;20016;-77
2021/04/04 09:02:48;;;;;;;4.85;3.17;;;5.20;55.40;;;;;;5080566;28;20056;-76
2021/04/04 09:05:15;;;;;;;4.55;2.63;;;5.40;57.60;;;;;;5064805;28;20023;-76
2021/04/04 09:07:43;;;;;;;6.80;2.67;;;5.10;55.30;;;;;;5058174;28;20023;-77
2021/04/04 09:10:14;;;;;;;2.47;1.90;;;4.80;55.50;;;;;;5053606;28;20154;-75
2021/04/04 09:12:42;;;;;;;6.78;3.78;;;4.50;55.10;;;;;;5077336;28;20021;-77
2021/04/04 09:15:09;;;;;;;5.85;2.50;;;4.50;56.50;;;;;;5055165;28;20021;-76
2021/04/04 09:17:35;;;;;;;9.98;4.57;;;4.50;57.00;;;;;;5057501;28;20054;-77
2021/04/04 09:20:05;;;;;;;7.72;3.92;;;4.40;57.20;;;;;;5072762;28;20413;-76
2021/04/04 09:22:31;;;;;;;6.07;3.80;;;4.40;56.80;;;;;;5046282;28;20111;-76
2021/04/04 09:25:08;;;;;;;5.45;2.92;;;4.50;57.00;;;;;;5053787;28;20074;-76
2021/04/04 09:27:40;;;;;;;3.45;2.13;;;4.60;57.20;;;;;;5071084;28;20442;-76
2021/04/04 09:30:22;;;;;;;4.53;1.93;;;4.60;55.00;;;;;;5072080;28;20074;-76
2021/04/04 09:32:53;;;;;;;4.60;2.00;;;4.40;53.40;;;;;;5072456;28;20271;-76
2021/04/04 09:35:21;;;;;;;16.40;7.15;;;4.30;52.20;;;;;;5073106;28;20020;-77
2021/04/04 09:37:48;;;;;;;4.55;2.35;;;4.50;53.40;;;;;;5071806;28;20486;-76
2021/04/04 09:40:16;;;;;;;6.45;1.98;;;4.60;52.90;;;;;;5071822;28;20020;-76
2021/04/04 09:42:42;;;;;;;2.50;2.25;;;5.00;52.80;;;;;;5071814;28;20481;-76
2021/04/04 09:45:19;;;;;;;6.38;2.28;;;5.30;52.10;;;;;;5070750;28;20046;-76
2021/04/04 09:47:46;;;;;;;3.45;2.17;;;5.60;52.00;;;;;;5070353;28;20025;-77
2021/04/04 09:50:21;;;;;;;11.23;4.78;;;5.70;49.50;;;;;;5054098;28;20020;-76
2021/04/04 09:52:47;;;;;;;4.47;2.80;;;6.00;50.10;;;;;;5072595;28;20032;-76
2021/04/04 09:55:17;;;;;;;4.25;3.05;;;6.20;48.90;;;;;;5053817;28;20020;-77
2021/04/04 09:57:45;;;;;;;5.25;2.95;;;6.50;48.80;;;;;;5073199;28;20017;-76
2021/04/04 10:00:18;;;;;;;3.80;1.90;;;6.60;46.90;;;;;;5073111;28;20016;-78
2021/04/04 10:02:44;;;;;;;5.70;3.75;;;7.00;46.40;;;;;;5073446;28;20104;-78
2021/04/04 10:05:10;;;;;;;6.10;2.38;;;7.20;46.50;;;;;;5073168;28;20562;-77
2021/04/04 10:07:36;;;;;;;9.27;4.35;;;6.80;45.70;;;;;;5072701;28;20417;-77
2021/04/04 10:10:04;;;;;;;2.47;1.98;;;6.60;47.10;;;;;;5072389;28;20029;-78
2021/04/04 10:12:29;;;;;;;3.15;1.80;;;6.30;46.70;;;;;;5052931;28;20086;-80
2021/04/04 10:15:07;;;;;;;8.07;4.70;;;6.00;47.50;;;;;;5053696;28;20408;-79
2021/04/04 10:17:34;;;;;;;22.77;7.50;;;6.00;48.90;;;;;;5045312;28;20025;-79
2021/04/04 10:20:03;;;;;;;20.38;7.07;;;6.00;49.10;;;;;;5060616;28;20027;-80
2021/04/04 10:22:49;;;;;;;3.83;2.40;;;6.00;49.10;;;;;;5055294;28;20028;-79
2021/04/04 10:25:16;;;;;;;1.73;1.30;;;6.00;47.60;;;;;;5054223;28;20023;-79
2021/04/04 10:27:41;;;;;;;1.95;1.50;;;6.00;46.00;;;;;;5072835;28;20446;-78
2021/04/04 10:30:11;;;;;;;2.65;1.85;;;6.30;46.00;;;;;;5072076;28;20032;-78
2021/04/04 10:32:38;;;;;;;5.15;2.78;;;6.20;44.40;;;;;;5054945;28;20444;-77
2021/04/04 10:35:07;;;;;;;2.35;1.40;;;6.40;44.80;;;;;;5033477;28;20071;-78
2021/04/04 10:37:33;;;;;;;1.75;1.35;;;6.70;45.20;;;;;;5043613;28;20024;-78
2021/04/04 10:40:00;;;;;;;3.63;1.75;;;7.10;46.00;;;;;;5050192;28;20028;-78
2021/04/04 10:42:27;;;;;;;1.30;1.20;;;7.50;45.10;;;;;;5067574;28;20028;-78
2021/04/04 10:45:12;;;;;;;2.72;1.30;;;7.50;43.00;;;;;;5071537;28;20385;-78
2021/04/04 10:47:39;;;;;;;2.97;1.55;;;6.90;41.00;;;;;;5053631;28;20569;-77
2021/04/04 10:50:11;;;;;;;2.42;1.70;;;6.50;41.80;;;;;;5070871;28;20021;-77
2021/04/04 10:52:43;;;;;;;2.72;2.20;;;6.30;41.90;;;;;;5053146;28;20024;-78
2021/04/04 10:55:11;;;;;;;4.95;4.30;;;6.30;42.20;;;;;;5068320;28;20071;-77
2021/04/04 10:57:38;;;;;;;3.58;1.98;;;6.30;41.90;;;;;;5070024;28;20095;-74
2021/04/04 11:00:09;;;;;;;5.97;2.42;;;6.50;42.10;;;;;;5070417;28;20020;-74
2021/04/04 11:02:37;;;;;;;12.23;4.95;;;6.70;42.70;;;;;;5056268;28;20470;-74
2021/04/04 11:05:04;;;;;;;3.20;1.70;;;7.10;41.90;;;;;;5072275;28;20378;-75
2021/04/04 11:07:32;;;;;;;8.93;3.85;;;7.10;40.50;;;;;;5064173;28;20048;-76
2021/04/04 11:09:57;;;;;;;1.95;1.75;;;7.20;39.30;;;;;;5074715;28;20477;-75
2021/04/04 11:12:25;;;;;;;11.48;4.32;;;7.10;40.00;;;;;;5050151;28;20036;-77
2021/04/04 11:14:58;;;;;;;3.40;2.97;;;6.90;40.00;;;;;;5044026;28;20023;-77
2021/04/04 11:17:25;;;;;;;22.77;7.60;;;6.40;39.70;;;;;;5065167;28;20095;-74
2021/04/04 11:19:51;;;;;;;4.43;2.17;;;6.30;40.10;;;;;;5064573;28;20029;-77
2021/04/04 11:22:21;;;;;;;92.97;34.42;;;6.30;40.50;;;;;;5054222;28;20106;-77
2021/04/04 11:25:02;;;;;;;124.53;45.90;;;6.30;40.70;;;;;;5068980;28;20118;-78
2021/04/04 11:27:48;;;;;;;55.97;16.85;;;6.40;41.60;;;;;;5052817;28;20516;-77
2021/04/04 11:30:40;;;;;;;132.32;33.90;;;6.70;42.40;;;;;;5053088;28;20128;-77
2021/04/04 11:33:15;;;;;;;10.02;5.75;;;6.80;40.70;;;;;;5072121;28;20025;-77
2021/04/04 11:36:10;;;;;;;31.80;10.30;;;7.10;40.40;;;;;;5050368;28;20037;-77
2021/04/04 11:38:55;;;;;;;106.13;34.00;;;7.70;41.10;;;;;;5044759;28;20029;-75
2021/04/04 11:41:24;;;;;;;32.67;10.38;;;8.00;39.00;;;;;;5069102;28;20028;-75
2021/04/04 11:44:13;;;;;;;20.85;7.97;;;8.00;38.10;;;;;;5072300;28;20012;-75
2021/04/04 11:46:54;;;;;;;2.97;2.17;;;7.90;37.30;;;;;;5074912;28;20024;-74
2021/04/04 11:49:35;;;;;;;10.00;5.40;;;7.50;37.30;;;;;;5074462;28;20108;-74
2021/04/04 11:52:21;;;;;;;6.03;3.13;;;7.00;38.80;;;;;;5075261;28;20037;-74
2021/04/04 11:54:48;;;;;;;3.05;1.80;;;6.80;39.70;;;;;;5041710;28;20029;-74
2021/04/04 11:57:21;;;;;;;4.70;2.38;;;6.60;39.90;;;;;;5056047;28;20021;-75
2021/04/04 12:00:07;;;;;;;6.47;3.22;;;6.30;40.40;;;;;;5055450;28;20039;-74
2021/04/04 12:02:35;;;;;;;4.60;2.22;;;6.30;40.90;;;;;;5054651;28;20032;-75
2021/04/04 12:05:09;;;;;;;5.30;2.30;;;6.30;41.40;;;;;;5076448;28;20025;-75
2021/04/04 12:07:48;;;;;;;174.63;57.75;;;6.10;41.50;;;;;;5063096;28;20029;-76
2021/04/04 12:10:19;;;;;;;53.65;18.27;;;6.40;41.90;;;;;;5043247;28;20032;-75
2021/04/04 12:12:45;;;;;;;64.20;27.38;;;6.50;42.30;;;;;;5014696;28;20025;-74
2021/04/04 12:15:16;;;;;;;425.02;173.07;;;6.70;42.40;;;;;;5057496;28;20027;-75
2021/04/04 12:17:47;;;;;;;241.35;96.43;;;6.70;40.80;;;;;;5055352;28;20083;-73
2021/04/04 12:20:14;;;;;;;6.38;4.65;;;6.80;39.90;;;;;;5035545;28;20360;-74
2021/04/04 12:22:43;;;;;;;40.45;20.55;;;6.70;39.60;;;;;;5036500;28;20051;-74
2021/04/04 12:25:16;;;;;;;58.67;28.13;;;6.60;39.80;;;;;;5057985;28;20027;-75
2021/04/04 12:27:44;;;;;;;159.27;81.28;;;6.60;39.90;;;;;;5054932;28;20033;-74
2021/04/04 12:30:31;;;;;;;73.78;32.78;;;6.50;39.70;;;;;;5055122;28;20092;-75
2021/04/04 12:33:20;;;;;;;134.52;57.85;;;6.60;39.50;;;;;;5054280;28;20021;-74
2021/04/04 12:35:54;;;;;;;88.28;37.80;;;6.70;39.40;;;;;;5036899;28;20138;-74
2021/04/04 12:38:24;;;;;;;394.38;151.27;;;6.60;39.40;;;;;;5053595;28;20067;-74
2021/04/04 12:40:50;;;;;;;86.65;31.83;;;6.80;40.10;;;;;;5054563;28;20032;-75
2021/04/04 12:43:16;;;;;;;852.67;385.45;;;6.80;41.60;;;;;;5054947;28;20025;-76
2021/04/04 12:45:42;;;;;;;91.45;39.15;;;6.80;40.60;;;;;;5069175;28;20035;-75
2021/04/04 12:48:19;;;;;;;205.00;74.22;;;7.10;41.10;;;;;;5055065;28;20029;-75
2021/04/04 12:51:00;;;;;;;308.95;111.03;;;7.00;40.20;;;;;;5036142;28;20056;-74
2021/04/04 12:53:29;;;;;;;164.60;56.90;;;6.80;39.50;;;;;;5052815;28;20060;-75
2021/04/04 12:55:55;;;;;;;12.35;5.68;;;6.90;39.40;;;;;;5033596;28;20449;-75
2021/04/04 12:58:29;;;;;;;348.55;114.03;;;6.70;39.40;;;;;;5035684;28;20553;-75
2021/04/04 13:00:54;;;;;;;10.10;4.53;;;6.60;40.00;;;;;;5050411;28;20026;-75
2021/04/04 13:03:22;;;;;;;112.32;34.65;;;6.50;39.70;;;;;;5035665;28;20021;-76
2021/04/04 13:05:52;;;;;;;20.95;7.78;;;6.70;40.20;;;;;;5032068;28;20025;-75
2021/04/04 13:08:22;;;;;;;31.95;10.63;;;6.90;40.20;;;;;;5050662;28;20021;-74
2021/04/04 13:10:50;;;;;;;3.58;2.20;;;7.10;40.10;;;;;;5044780;28;20128;-72